createdAt,value
2022-10-01T00:00:56.585Z,7.70
2022-10-01T00:04:01.490Z,10.77
2022-10-01T00:07:10.774Z,8.20
2022-10-01T00:10:21.105Z,10.52
2022-10-01T00:13:25.764Z,8.43
2022-10-01T00:16:31.686Z,11.82
2022-10-01T00:19:37.008Z,7.05
2022-10-01T00:22:41.863Z,11.85
2022-10-01T00:25:46.283Z,7.70
2022-10-01T00:32:00.377Z,11.52
2022-10-01T00:35:09.492Z,6.53
2022-10-01T00:38:15.285Z,10.10
2022-10-01T00:41:20.071Z,8.13
2022-10-01T00:44:36.655Z,6.47
2022-10-01T00:48:07.571Z,10.77
2022-10-01T00:51:13.754Z,7.03
2022-10-01T00:54:34.875Z,7.07
2022-10-01T00:57:51.120Z,5.63
2022-10-01T01:00:57.076Z,7.88
2022-10-01T01:04:01.663Z,11.13
2022-10-01T01:07:07.250Z,5.47
2022-10-01T01:10:16.277Z,7.05
2022-10-01T01:13:57.855Z,5.75
2022-10-01T01:17:12.586Z,5.78
2022-10-01T01:21:03.848Z,11.77
2022-10-01T01:24:40.774Z,5.85
2022-10-01T01:27:53.511Z,7.38
2022-10-01T01:31:07.561Z,4.97
2022-10-01T01:34:23.503Z,5.80
2022-10-01T01:37:34.797Z,5.95
2022-10-01T01:40:42.182Z,4.13
2022-10-01T01:43:51.410Z,4.80
2022-10-01T01:46:58.232Z,6.15
2022-10-01T01:50:03.719Z,6.20
2022-10-01T01:53:08.785Z,6.07
2022-10-01T01:56:14.193Z,7.47
2022-10-01T01:59:19.599Z,7.45
2022-10-01T02:02:29.934Z,5.88
2022-10-01T02:05:48.340Z,6.45
2022-10-01T02:09:11.541Z,6.63
2022-10-01T02:12:19.725Z,4.13
2022-10-01T02:16:18.921Z,6.78
2022-10-01T02:20:10.097Z,7.30
2022-10-01T02:23:25.509Z,8.02
2022-10-01T02:26:32.138Z,7.72
2022-10-01T02:29:39.537Z,5.72
2022-10-01T02:32:49.397Z,5.70
2022-10-01T02:35:55.146Z,7.03
2022-10-01T02:39:01.221Z,7.10
2022-10-01T02:42:08.513Z,5.13
2022-10-01T02:45:17.064Z,5.78
2022-10-01T02:48:21.971Z,6.45
2022-10-01T02:51:46.390Z,6.50
2022-10-01T02:55:17.838Z,5.57
2022-10-01T02:58:22.794Z,4.70
2022-10-01T03:01:27.460Z,6.93
2022-10-01T03:04:32.454Z,4.53
2022-10-01T03:07:38.033Z,6.75
2022-10-01T03:10:46.587Z,4.95
2022-10-01T03:13:51.389Z,8.32
2022-10-01T03:17:01.448Z,9.30
2022-10-01T03:20:10.206Z,9.88
2022-10-01T03:23:14.514Z,9.10
2022-10-01T03:26:18.890Z,8.43
2022-10-01T03:29:26.875Z,11.30
2022-10-01T03:32:31.723Z,9.30
2022-10-01T03:35:36.145Z,11.05
2022-10-01T03:38:40.769Z,9.35
2022-10-01T03:41:45.482Z,12.85
2022-10-01T03:44:49.904Z,17.48
2022-10-01T03:47:54.954Z,12.65
2022-10-01T03:51:00.112Z,11.98
2022-10-01T03:54:06.522Z,12.75
2022-10-01T03:57:10.766Z,12.40
2022-10-01T04:03:19.560Z,19.67
2022-10-01T04:06:24.006Z,16.08
2022-10-01T04:09:28.265Z,17.48
2022-10-01T04:12:32.259Z,18.48
2022-10-01T04:15:40.222Z,18.67
2022-10-01T04:18:44.554Z,17.55
2022-10-01T04:21:51.839Z,16.80
2022-10-01T04:24:56.182Z,16.90
2022-10-01T04:31:25.586Z,17.10
2022-10-01T04:34:48.949Z,23.60
2022-10-01T04:38:03.417Z,16.42
2022-10-01T04:41:08.855Z,20.30
2022-10-01T04:44:13.494Z,17.48
2022-10-01T04:47:17.704Z,15.73
2022-10-01T04:50:25.245Z,19.30
2022-10-01T04:53:30.057Z,22.15
2022-10-01T04:56:34.331Z,27.15
2022-10-01T04:59:42.357Z,19.13
2022-10-01T05:02:49.204Z,19.42
2022-10-01T05:05:53.555Z,19.92
2022-10-01T05:08:57.874Z,20.77
2022-10-01T05:12:02.543Z,17.73
2022-10-01T05:15:08.327Z,20.00
2022-10-01T05:18:12.888Z,17.92
2022-10-01T05:24:21.752Z,19.25
2022-10-01T05:27:31.087Z,21.30
2022-10-01T05:30:35.549Z,22.15
2022-10-01T05:33:41.086Z,22.80
2022-10-01T05:36:47.532Z,22.23
2022-10-01T05:39:53.055Z,26.48
2022-10-01T05:42:59.737Z,24.75
2022-10-01T05:46:07.924Z,23.08
2022-10-01T05:49:12.314Z,22.75
2022-10-01T05:52:17.029Z,23.17
2022-10-01T05:55:22.999Z,25.67
2022-10-01T05:58:27.700Z,24.75
2022-10-01T06:01:32.802Z,27.75
2022-10-01T06:04:41.180Z,25.30
2022-10-01T06:07:46.013Z,23.65
2022-10-01T06:13:55.124Z,23.83
2022-10-01T06:17:02.095Z,22.90
2022-10-01T06:20:06.991Z,24.08
2022-10-01T06:23:13.365Z,31.02
2022-10-01T06:26:23.888Z,30.02
2022-10-01T06:29:28.321Z,27.70
2022-10-01T06:32:35.026Z,24.85
2022-10-01T06:35:52.364Z,28.58
2022-10-01T06:39:10.662Z,28.58
2022-10-01T06:42:19.987Z,26.67
2022-10-01T06:45:35.377Z,34.78
2022-10-01T06:48:44.435Z,43.65
2022-10-01T06:52:07.664Z,30.45
2022-10-01T06:55:16.616Z,41.83
2022-10-01T06:58:27.556Z,31.58
2022-10-01T07:01:37.017Z,33.97
2022-10-01T07:04:41.856Z,39.33
2022-10-01T07:08:01.660Z,38.58
2022-10-01T07:11:22.866Z,30.67
2022-10-01T07:14:29.336Z,31.67
2022-10-01T07:17:34.458Z,25.88
2022-10-01T07:20:42.737Z,25.27
2022-10-01T07:23:48.532Z,30.23
2022-10-01T07:26:55.590Z,33.55
2022-10-01T07:30:00.110Z,34.08
2022-10-01T07:33:04.936Z,37.45
2022-10-01T07:36:13.625Z,24.20
2022-10-01T07:39:18.084Z,22.95
2022-10-01T07:42:22.428Z,27.42
2022-10-01T07:45:28.075Z,25.63
2022-10-01T07:48:33.114Z,21.83
2022-10-01T07:51:37.543Z,30.27
2022-10-01T07:54:41.829Z,26.02
2022-10-01T07:57:53.102Z,26.98
2022-10-01T08:01:04.702Z,24.30
2022-10-01T08:04:28.627Z,23.95
2022-10-01T08:07:36.396Z,22.87
2022-10-01T08:10:41.608Z,22.67
2022-10-01T08:13:49.408Z,23.30
2022-10-01T08:16:57.841Z,19.38
2022-10-01T08:20:06.444Z,21.80
2022-10-01T08:23:17.707Z,21.85
2022-10-01T08:26:34.734Z,19.45
2022-10-01T08:29:48.890Z,20.88
2022-10-01T08:32:59.539Z,19.25
2022-10-01T08:36:08.550Z,17.63
2022-10-01T08:39:14.863Z,18.70
2022-10-01T08:43:01.068Z,18.55
2022-10-01T08:46:50.949Z,18.48
2022-10-01T08:50:26.743Z,15.45
2022-10-01T08:53:55.470Z,15.38
2022-10-01T08:57:13.742Z,17.48
2022-10-01T09:00:38.126Z,19.48
2022-10-01T09:03:42.697Z,16.98
2022-10-01T09:06:59.821Z,19.02
2022-10-01T09:10:25.658Z,19.35
2022-10-01T09:13:58.273Z,22.52
2022-10-01T09:17:15.412Z,26.50
2022-10-01T09:20:39.670Z,20.65
2022-10-01T09:24:15.212Z,24.65
2022-10-01T09:27:26.799Z,30.80
2022-10-01T09:30:53.515Z,29.17
2022-10-01T09:34:28.079Z,34.55
2022-10-01T09:41:17.039Z,38.22
2022-10-01T09:45:03.485Z,35.22
2022-10-01T09:49:10.450Z,39.95
2022-10-01T09:52:35.717Z,40.75
2022-10-01T09:55:45.339Z,45.78
2022-10-01T10:24:38.430Z,55.08
2022-10-01T10:27:58.475Z,51.05
2022-10-01T10:31:11.604Z,56.97
2022-10-01T10:34:38.677Z,49.45
2022-10-01T10:37:52.489Z,44.40
2022-10-01T10:41:30.675Z,43.55
2022-10-01T10:44:39.914Z,40.20
2022-10-01T10:47:54.279Z,54.63
2022-10-01T10:51:02.352Z,40.30
2022-10-01T10:54:21.957Z,31.13
2022-10-01T10:57:43.963Z,34.10
2022-10-01T11:00:50.833Z,30.90
2022-10-01T11:03:59.910Z,28.55
2022-10-01T11:07:04.873Z,26.38
2022-10-01T11:10:35.686Z,35.25
2022-10-01T11:14:22.740Z,41.60
2022-10-01T11:17:46.383Z,31.00
2022-10-01T11:21:27.319Z,30.23
2022-10-01T11:24:46.164Z,34.17
2022-10-01T11:28:37.525Z,30.42
2022-10-01T11:32:19.802Z,32.15
2022-10-01T11:36:00.646Z,33.30
2022-10-01T11:39:18.083Z,28.02
2022-10-01T11:42:34.782Z,25.00
2022-10-01T11:45:52.526Z,16.08
2022-10-01T11:49:25.307Z,35.20
2022-10-01T11:53:15.868Z,18.88
2022-10-01T11:57:08.297Z,12.85
2022-10-01T12:00:17.297Z,15.90
2022-10-01T12:03:29.644Z,11.55
2022-10-01T12:06:55.738Z,14.63
2022-10-01T12:10:38.803Z,41.08
2022-10-01T12:14:40.744Z,20.98
2022-10-01T12:18:32.132Z,13.48
2022-10-01T12:22:00.681Z,20.42
2022-10-01T12:25:13.786Z,22.27
2022-10-01T12:28:39.120Z,21.50
2022-10-01T12:32:54.667Z,10.00
2022-10-01T12:36:16.454Z,14.45
2022-10-01T12:40:09.881Z,14.68
2022-10-01T12:44:04.161Z,16.92
2022-10-01T12:47:21.802Z,14.80
2022-10-01T12:51:02.260Z,14.95
2022-10-01T12:54:50.797Z,17.80
2022-10-01T12:58:49.556Z,12.93
2022-10-01T13:02:19.656Z,11.52
2022-10-01T13:06:05.481Z,12.40
2022-10-01T13:09:49.159Z,12.70
2022-10-01T13:14:13.714Z,14.30
2022-10-01T13:18:05.239Z,9.43
2022-10-01T13:22:02.157Z,7.72
2022-10-01T13:25:53.712Z,8.00
2022-10-01T13:29:41.505Z,8.77
2022-10-01T13:33:01.137Z,8.85
2022-10-01T13:37:18.669Z,6.32
2022-10-01T13:41:05.680Z,3.40
2022-10-01T13:45:05.102Z,6.28
2022-10-01T13:48:54.488Z,15.02
2022-10-01T13:52:14.318Z,4.93
2022-10-01T13:55:33.915Z,14.13
2022-10-01T13:58:56.670Z,4.93
2022-10-01T14:02:41.431Z,18.38
2022-10-01T14:13:46.128Z,8.60
2022-10-01T14:17:30.632Z,5.15
2022-10-01T14:26:23.747Z,6.30
2022-10-01T14:35:27.669Z,11.15
2022-10-01T14:47:45.444Z,10.77
2022-10-01T14:57:26.557Z,88.65
2022-10-01T15:25:05.440Z,10.85
2022-10-01T15:28:49.418Z,11.55
2022-10-01T15:32:14.223Z,17.55
2022-10-01T15:35:46.100Z,15.88
2022-10-01T15:38:57.117Z,14.00
2022-10-01T15:42:40.908Z,13.55
2022-10-01T15:46:06.459Z,11.60
2022-10-01T15:49:30.954Z,12.82
2022-10-01T15:53:33.821Z,13.02
2022-10-01T16:05:15.820Z,9.88
2022-10-01T16:12:38.977Z,13.85
2022-10-01T16:16:18.584Z,10.27
2022-10-01T16:29:40.778Z,11.63
2022-10-01T16:32:57.940Z,12.10
2022-10-01T16:45:08.788Z,12.50
2022-10-01T16:48:52.349Z,18.92
2022-10-01T16:52:10.508Z,13.07
2022-10-01T16:55:53.719Z,16.17
2022-10-01T17:21:25.594Z,16.08
2022-10-01T17:25:08.557Z,16.98
2022-10-01T17:31:48.657Z,12.20
2022-10-01T17:35:09.974Z,16.48
2022-10-01T17:47:11.936Z,14.25
2022-10-01T17:50:17.849Z,19.08
2022-10-01T17:53:27.399Z,21.00
2022-10-01T17:56:34.628Z,26.58
2022-10-01T17:59:39.355Z,29.60
2022-10-01T18:02:46.283Z,21.30
2022-10-01T18:05:51.282Z,19.83
2022-10-01T18:09:03.843Z,20.00
2022-10-01T18:12:25.214Z,24.63
2022-10-01T18:16:19.051Z,14.57
2022-10-01T18:19:53.285Z,27.50
2022-10-01T18:23:47.398Z,19.55
2022-10-01T18:31:54.566Z,27.70
2022-10-01T18:36:24.655Z,21.58
2022-10-01T18:40:30.728Z,35.53
2022-10-01T18:43:51.779Z,24.60
2022-10-01T18:47:21.159Z,22.30
2022-10-01T18:51:29.648Z,33.00
2022-10-01T18:55:05.110Z,33.25
2022-10-01T18:58:58.320Z,26.98
2022-10-01T19:02:57.167Z,22.25
2022-10-01T19:10:40.074Z,30.45
2022-10-01T19:15:18.603Z,22.05
2022-10-01T19:19:05.698Z,16.27
2022-10-01T19:22:50.801Z,24.77
2022-10-01T19:26:06.586Z,25.45
2022-10-01T19:29:41.523Z,12.30
2022-10-01T19:33:17.673Z,16.83
2022-10-01T19:37:13.618Z,19.48
2022-10-01T19:40:46.176Z,23.27
2022-10-01T19:44:02.175Z,17.50
2022-10-01T19:47:31.482Z,12.70
2022-10-01T19:50:43.863Z,19.63
2022-10-01T19:54:00.230Z,23.05
2022-10-01T19:57:48.313Z,17.30
2022-10-01T20:00:57.858Z,35.50
2022-10-01T20:52:10.594Z,35.42
